sensor_id;sensor_type;location;lat;lon;timestamp;P1;durP1;ratioP1;P2;durP2;ratioP2
57832;SDS011;43667;53.036;6.740;2022-11-27T00:01:17;35.85;;;8.80;;
57832;SDS011;43667;53.036;6.740;2022-11-27T00:03:44;21.83;;;7.30;;
57832;SDS011;43667;53.036;6.740;2022-11-27T00:06:11;20.65;;;7.18;;
57832;SDS011;43667;53.036;6.740;2022-11-27T00:08:42;31.73;;;8.50;;
57832;SDS011;43667;53.036;6.740;2022-11-27T00:11:10;29.88;;;8.85;;
57832;SDS011;43667;53.036;6.740;2022-11-27T00:13:37;22.55;;;8.07;;
57832;SDS011;43667;53.036;6.740;2022-11-27T00:16:03;26.58;;;7.93;;
57832;SDS011;43667;53.036;6.740;2022-11-27T00:18:29;24.00;;;8.18;;
57832;SDS011;43667;53.036;6.740;2022-11-27T00:20:55;27.65;;;7.57;;
57832;SDS011;43667;53.036;6.740;2022-11-27T00:23:25;20.95;;;8.07;;
57832;SDS011;43667;53.036;6.740;2022-11-27T00:25:51;24.13;;;8.23;;
57832;SDS011;43667;53.036;6.740;2022-11-27T00:28:17;25.25;;;8.20;;
57832;SDS011;43667;53.036;6.740;2022-11-27T00:30:43;17.67;;;7.65;;
57832;SDS011;43667;53.036;6.740;2022-11-27T00:33:09;28.27;;;8.70;;
57832;SDS011;43667;53.036;6.740;2022-11-27T00:35:36;19.52;;;7.22;;
57832;SDS011;43667;53.036;6.740;2022-11-27T00:38:02;19.92;;;7.15;;
57832;SDS011;43667;53.036;6.740;2022-11-27T00:40:28;25.20;;;8.40;;
57832;SDS011;43667;53.036;6.740;2022-11-27T00:42:53;30.17;;;8.95;;
57832;SDS011;43667;53.036;6.740;2022-11-27T00:45:19;27.17;;;8.73;;
57832;SDS011;43667;53.036;6.740;2022-11-27T00:47:44;27.33;;;8.38;;
57832;SDS011;43667;53.036;6.740;2022-11-27T00:50:10;18.35;;;7.40;;
57832;SDS011;43667;53.036;6.740;2022-11-27T00:52:35;17.13;;;6.70;;
57832;SDS011;43667;53.036;6.740;2022-11-27T00:55:01;20.17;;;7.95;;
57832;SDS011;43667;53.036;6.740;2022-11-27T00:57:27;25.95;;;8.38;;
57832;SDS011;43667;53.036;6.740;2022-11-27T00:59:53;22.45;;;7.18;;
57832;SDS011;43667;53.036;6.740;2022-11-27T01:02:18;23.38;;;7.72;;
57832;SDS011;43667;53.036;6.740;2022-11-27T01:04:44;16.02;;;6.90;;
57832;SDS011;43667;53.036;6.740;2022-11-27T01:07:11;18.95;;;7.65;;
57832;SDS011;43667;53.036;6.740;2022-11-27T01:09:37;20.38;;;7.38;;
57832;SDS011;43667;53.036;6.740;2022-11-27T01:12:02;24.90;;;7.32;;
57832;SDS011;43667;53.036;6.740;2022-11-27T01:14:28;19.77;;;7.43;;
57832;SDS011;43667;53.036;6.740;2022-11-27T01:16:54;16.08;;;7.00;;
57832;SDS011;43667;53.036;6.740;2022-11-27T01:19:19;18.58;;;6.70;;
57832;SDS011;43667;53.036;6.740;2022-11-27T01:21:45;22.58;;;7.40;;
57832;SDS011;43667;53.036;6.740;2022-11-27T01:24:11;20.80;;;7.65;;
57832;SDS011;43667;53.036;6.740;2022-11-27T01:26:39;20.55;;;6.97;;
57832;SDS011;43667;53.036;6.740;2022-11-27T01:29:04;18.88;;;7.03;;
57832;SDS011;43667;53.036;6.740;2022-11-27T01:31:31;28.45;;;8.98;;
57832;SDS011;43667;53.036;6.740;2022-11-27T01:33:58;18.33;;;6.45;;
57832;SDS011;43667;53.036;6.740;2022-11-27T01:36:25;22.38;;;7.13;;
57832;SDS011;43667;53.036;6.740;2022-11-27T01:38:52;25.13;;;6.95;;
57832;SDS011;43667;53.036;6.740;2022-11-27T01:41:20;22.13;;;7.00;;
57832;SDS011;43667;53.036;6.740;2022-11-27T01:43:57;20.85;;;7.03;;
57832;SDS011;43667;53.036;6.740;2022-11-27T01:51:45;22.88;;;7.10;;
57832;SDS011;43667;53.036;6.740;2022-11-27T01:54:14;17.48;;;7.00;;
57832;SDS011;43667;53.036;6.740;2022-11-27T01:56:40;18.23;;;7.03;;
57832;SDS011;43667;53.036;6.740;2022-11-27T01:59:09;19.10;;;7.22;;
57832;SDS011;43667;53.036;6.740;2022-11-27T02:01:35;18.52;;;7.50;;
57832;SDS011;43667;53.036;6.740;2022-11-27T02:04:00;21.40;;;7.93;;
57832;SDS011;43667;53.036;6.740;2022-11-27T02:06:26;23.65;;;7.75;;
57832;SDS011;43667;53.036;6.740;2022-11-27T02:08:52;22.52;;;7.65;;
57832;SDS011;43667;53.036;6.740;2022-11-27T02:14:12;19.40;;;7.65;;
57832;SDS011;43667;53.036;6.740;2022-11-27T02:25:06;20.13;;;7.45;;
57832;SDS011;43667;53.036;6.740;2022-11-27T02:27:56;16.85;;;7.80;;
57832;SDS011;43667;53.036;6.740;2022-11-27T02:30:29;24.90;;;9.30;;
57832;SDS011;43667;53.036;6.740;2022-11-27T02:33:02;17.55;;;7.63;;
57832;SDS011;43667;53.036;6.740;2022-11-27T02:35:40;18.02;;;8.02;;
57832;SDS011;43667;53.036;6.740;2022-11-27T02:38:25;19.90;;;7.68;;
57832;SDS011;43667;53.036;6.740;2022-11-27T02:41:04;17.10;;;7.47;;
57832;SDS011;43667;53.036;6.740;2022-11-27T02:43:47;28.25;;;7.88;;
57832;SDS011;43667;53.036;6.740;2022-11-27T02:46:15;20.05;;;8.57;;
57832;SDS011;43667;53.036;6.740;2022-11-27T02:48:46;24.23;;;8.40;;
57832;SDS011;43667;53.036;6.740;2022-11-27T02:51:27;15.80;;;8.15;;
57832;SDS011;43667;53.036;6.740;2022-11-27T02:54:01;20.63;;;8.30;;
57832;SDS011;43667;53.036;6.740;2022-11-27T02:56:29;25.25;;;9.63;;
57832;SDS011;43667;53.036;6.740;2022-11-27T02:58:58;17.13;;;7.78;;
57832;SDS011;43667;53.036;6.740;2022-11-27T03:01:26;17.85;;;7.80;;
57832;SDS011;43667;53.036;6.740;2022-11-27T03:03:56;18.13;;;7.95;;
57832;SDS011;43667;53.036;6.740;2022-11-27T03:06:28;21.23;;;8.68;;
57832;SDS011;43667;53.036;6.740;2022-11-27T03:09:00;19.05;;;7.95;;
57832;SDS011;43667;53.036;6.740;2022-11-27T03:11:32;23.80;;;8.50;;
57832;SDS011;43667;53.036;6.740;2022-11-27T03:14:00;20.42;;;7.57;;
57832;SDS011;43667;53.036;6.740;2022-11-27T03:22:17;18.88;;;8.90;;
57832;SDS011;43667;53.036;6.740;2022-11-27T03:24:42;18.02;;;8.35;;
57832;SDS011;43667;53.036;6.740;2022-11-27T03:27:08;20.88;;;8.18;;
57832;SDS011;43667;53.036;6.740;2022-11-27T03:29:57;19.48;;;8.05;;
57832;SDS011;43667;53.036;6.740;2022-11-27T03:32:25;21.98;;;8.88;;
57832;SDS011;43667;53.036;6.740;2022-11-27T03:34:52;17.55;;;7.85;;
57832;SDS011;43667;53.036;6.740;2022-11-27T03:37:19;28.58;;;8.65;;
57832;SDS011;43667;53.036;6.740;2022-11-27T03:39:45;22.40;;;9.05;;
57832;SDS011;43667;53.036;6.740;2022-11-27T03:45:02;18.75;;;8.10;;
57832;SDS011;43667;53.036;6.740;2022-11-27T03:50:50;20.60;;;8.25;;
57832;SDS011;43667;53.036;6.740;2022-11-27T03:53:29;23.67;;;8.38;;
57832;SDS011;43667;53.036;6.740;2022-11-27T03:56:11;18.95;;;8.52;;
57832;SDS011;43667;53.036;6.740;2022-11-27T03:58:53;22.38;;;8.50;;
57832;SDS011;43667;53.036;6.740;2022-11-27T04:01:23;18.63;;;7.50;;
57832;SDS011;43667;53.036;6.740;2022-11-27T04:03:51;20.92;;;8.27;;
57832;SDS011;43667;53.036;6.740;2022-11-27T04:06:17;23.30;;;9.20;;
57832;SDS011;43667;53.036;6.740;2022-11-27T04:08:43;20.55;;;8.27;;
57832;SDS011;43667;53.036;6.740;2022-11-27T04:11:10;19.55;;;7.32;;
57832;SDS011;43667;53.036;6.740;2022-11-27T04:13:36;18.40;;;7.63;;
57832;SDS011;43667;53.036;6.740;2022-11-27T04:16:02;17.98;;;7.28;;
57832;SDS011;43667;53.036;6.740;2022-11-27T04:18:28;21.02;;;7.40;;
57832;SDS011;43667;53.036;6.740;2022-11-27T04:20:54;19.38;;;7.20;;
57832;SDS011;43667;53.036;6.740;2022-11-27T04:23:19;17.52;;;6.32;;
57832;SDS011;43667;53.036;6.740;2022-11-27T04:25:45;17.40;;;6.85;;
57832;SDS011;43667;53.036;6.740;2022-11-27T04:28:11;18.17;;;5.88;;
57832;SDS011;43667;53.036;6.740;2022-11-27T04:30:37;17.90;;;6.75;;
57832;SDS011;43667;53.036;6.740;2022-11-27T04:33:02;12.98;;;5.80;;
57832;SDS011;43667;53.036;6.740;2022-11-27T04:35:28;13.18;;;6.93;;
57832;SDS011;43667;53.036;6.740;2022-11-27T04:37:55;15.52;;;6.03;;
57832;SDS011;43667;53.036;6.740;2022-11-27T04:40:21;16.30;;;7.10;;
57832;SDS011;43667;53.036;6.740;2022-11-27T04:42:46;16.42;;;6.20;;
57832;SDS011;43667;53.036;6.740;2022-11-27T04:45:12;15.00;;;6.18;;
57832;SDS011;43667;53.036;6.740;2022-11-27T04:47:38;16.08;;;6.28;;
57832;SDS011;43667;53.036;6.740;2022-11-27T04:50:04;12.45;;;6.10;;
57832;SDS011;43667;53.036;6.740;2022-11-27T04:52:30;18.20;;;7.15;;
57832;SDS011;43667;53.036;6.740;2022-11-27T04:54:56;16.85;;;6.60;;
57832;SDS011;43667;53.036;6.740;2022-11-27T04:57:21;17.38;;;6.28;;
57832;SDS011;43667;53.036;6.740;2022-11-27T04:59:47;16.55;;;6.07;;
57832;SDS011;43667;53.036;6.740;2022-11-27T05:02:13;14.57;;;5.78;;
57832;SDS011;43667;53.036;6.740;2022-11-27T05:04:38;20.63;;;6.00;;
57832;SDS011;43667;53.036;6.740;2022-11-27T05:07:04;20.70;;;6.10;;
57832;SDS011;43667;53.036;6.740;2022-11-27T05:09:29;20.08;;;6.15;;
57832;SDS011;43667;53.036;6.740;2022-11-27T05:11:55;16.25;;;5.53;;
57832;SDS011;43667;53.036;6.740;2022-11-27T05:14:21;17.65;;;5.93;;
57832;SDS011;43667;53.036;6.740;2022-11-27T05:16:51;16.77;;;6.45;;
57832;SDS011;43667;53.036;6.740;2022-11-27T05:19:19;19.10;;;6.88;;
57832;SDS011;43667;53.036;6.740;2022-11-27T05:21:46;11.88;;;5.57;;
57832;SDS011;43667;53.036;6.740;2022-11-27T05:24:12;15.68;;;6.13;;
57832;SDS011;43667;53.036;6.740;2022-11-27T05:26:38;18.80;;;6.03;;
57832;SDS011;43667;53.036;6.740;2022-11-27T05:29:05;14.35;;;5.95;;
57832;SDS011;43667;53.036;6.740;2022-11-27T05:31:31;19.13;;;6.10;;
57832;SDS011;43667;53.036;6.740;2022-11-27T05:33:57;15.32;;;6.28;;
57832;SDS011;43667;53.036;6.740;2022-11-27T05:36:23;21.30;;;6.43;;
57832;SDS011;43667;53.036;6.740;2022-11-27T05:38:48;12.25;;;5.72;;
57832;SDS011;43667;53.036;6.740;2022-11-27T05:41:14;15.10;;;5.85;;
57832;SDS011;43667;53.036;6.740;2022-11-27T05:43:39;16.88;;;5.55;;
57832;SDS011;43667;53.036;6.740;2022-11-27T05:46:06;13.90;;;5.38;;
57832;SDS011;43667;53.036;6.740;2022-11-27T05:48:33;15.93;;;5.80;;
57832;SDS011;43667;53.036;6.740;2022-11-27T05:50:59;12.30;;;5.35;;
57832;SDS011;43667;53.036;6.740;2022-11-27T05:53:25;16.98;;;5.72;;
57832;SDS011;43667;53.036;6.740;2022-11-27T05:55:51;16.77;;;5.78;;
57832;SDS011;43667;53.036;6.740;2022-11-27T05:58:17;13.80;;;5.70;;
57832;SDS011;43667;53.036;6.740;2022-11-27T06:00:42;13.98;;;5.30;;
57832;SDS011;43667;53.036;6.740;2022-11-27T06:03:08;18.05;;;5.50;;
57832;SDS011;43667;53.036;6.740;2022-11-27T06:05:37;12.48;;;5.43;;
57832;SDS011;43667;53.036;6.740;2022-11-27T06:08:03;15.00;;;5.75;;
57832;SDS011;43667;53.036;6.740;2022-11-27T06:10:29;16.58;;;5.97;;
57832;SDS011;43667;53.036;6.740;2022-11-27T06:12:55;16.67;;;6.10;;
57832;SDS011;43667;53.036;6.740;2022-11-27T06:15:20;19.00;;;6.57;;
57832;SDS011;43667;53.036;6.740;2022-11-27T06:17:47;13.85;;;5.70;;
57832;SDS011;43667;53.036;6.740;2022-11-27T06:20:13;14.75;;;5.18;;
57832;SDS011;43667;53.036;6.740;2022-11-27T06:22:39;16.48;;;6.10;;
57832;SDS011;43667;53.036;6.740;2022-11-27T06:25:05;18.02;;;5.72;;
57832;SDS011;43667;53.036;6.740;2022-11-27T06:27:31;13.80;;;5.80;;
57832;SDS011;43667;53.036;6.740;2022-11-27T06:29:58;12.80;;;5.60;;
57832;SDS011;43667;53.036;6.740;2022-11-27T06:32:23;13.98;;;5.55;;
57832;SDS011;43667;53.036;6.740;2022-11-27T06:34:49;14.25;;;6.10;;
57832;SDS011;43667;53.036;6.740;2022-11-27T06:37:14;12.23;;;5.28;;
57832;SDS011;43667;53.036;6.740;2022-11-27T06:39:40;18.77;;;6.20;;
57832;SDS011;43667;53.036;6.740;2022-11-27T06:42:05;12.18;;;5.63;;
57832;SDS011;43667;53.036;6.740;2022-11-27T06:44:31;13.07;;;5.57;;
57832;SDS011;43667;53.036;6.740;2022-11-27T06:46:57;15.07;;;6.10;;
57832;SDS011;43667;53.036;6.740;2022-11-27T06:49:22;14.30;;;5.68;;
57832;SDS011;43667;53.036;6.740;2022-11-27T06:51:48;11.98;;;5.07;;
57832;SDS011;43667;53.036;6.740;2022-11-27T06:54:14;16.00;;;5.53;;
57832;SDS011;43667;53.036;6.740;2022-11-27T06:56:40;12.98;;;5.60;;
57832;SDS011;43667;53.036;6.740;2022-11-27T06:59:06;16.33;;;5.88;;
57832;SDS011;43667;53.036;6.740;2022-11-27T07:01:31;14.63;;;6.10;;
57832;SDS011;43667;53.036;6.740;2022-11-27T07:03:58;15.27;;;5.88;;
57832;SDS011;43667;53.036;6.740;2022-11-27T07:06:25;17.85;;;6.18;;
57832;SDS011;43667;53.036;6.740;2022-11-27T07:08:51;14.40;;;5.93;;
57832;SDS011;43667;53.036;6.740;2022-11-27T07:11:18;15.07;;;5.15;;
57832;SDS011;43667;53.036;6.740;2022-11-27T07:13:46;11.85;;;5.57;;
57832;SDS011;43667;53.036;6.740;2022-11-27T07:16:13;11.00;;;4.93;;
57832;SDS011;43667;53.036;6.740;2022-11-27T07:18:41;12.45;;;5.20;;
57832;SDS011;43667;53.036;6.740;2022-11-27T07:21:08;15.80;;;5.50;;
57832;SDS011;43667;53.036;6.740;2022-11-27T07:23:34;19.20;;;5.50;;
57832;SDS011;43667;53.036;6.740;2022-11-27T07:26:04;16.05;;;5.72;;
57832;SDS011;43667;53.036;6.740;2022-11-27T07:28:31;16.50;;;5.97;;
57832;SDS011;43667;53.036;6.740;2022-11-27T07:30:57;16.23;;;5.65;;
57832;SDS011;43667;53.036;6.740;2022-11-27T07:33:23;16.25;;;6.55;;
57832;SDS011;43667;53.036;6.740;2022-11-27T07:35:56;13.75;;;5.90;;
57832;SDS011;43667;53.036;6.740;2022-11-27T07:38:25;11.18;;;5.28;;
57832;SDS011;43667;53.036;6.740;2022-11-27T07:40:51;12.13;;;5.78;;
57832;SDS011;43667;53.036;6.740;2022-11-27T07:43:16;16.48;;;5.38;;
57832;SDS011;43667;53.036;6.740;2022-11-27T07:45:42;12.85;;;5.65;;
57832;SDS011;43667;53.036;6.740;2022-11-27T07:48:07;12.45;;;5.93;;
57832;SDS011;43667;53.036;6.740;2022-11-27T07:50:33;11.45;;;5.10;;
57832;SDS011;43667;53.036;6.740;2022-11-27T07:52:58;13.38;;;5.47;;
57832;SDS011;43667;53.036;6.740;2022-11-27T07:55:24;10.98;;;5.85;;
57832;SDS011;43667;53.036;6.740;2022-11-27T07:57:49;12.55;;;4.88;;
57832;SDS011;43667;53.036;6.740;2022-11-27T08:00:15;10.88;;;5.63;;
57832;SDS011;43667;53.036;6.740;2022-11-27T08:02:41;15.32;;;5.82;;
57832;SDS011;43667;53.036;6.740;2022-11-27T08:05:06;12.02;;;5.90;;
57832;SDS011;43667;53.036;6.740;2022-11-27T08:07:32;8.55;;;5.47;;
57832;SDS011;43667;53.036;6.740;2022-11-27T08:09:58;13.52;;;5.68;;
57832;SDS011;43667;53.036;6.740;2022-11-27T08:12:24;14.48;;;5.72;;
57832;SDS011;43667;53.036;6.740;2022-11-27T08:14:50;12.07;;;5.95;;
57832;SDS011;43667;53.036;6.740;2022-11-27T08:17:15;10.13;;;5.38;;
57832;SDS011;43667;53.036;6.740;2022-11-27T08:19:41;12.75;;;5.80;;
57832;SDS011;43667;53.036;6.740;2022-11-27T08:22:11;9.48;;;5.20;;
57832;SDS011;43667;53.036;6.740;2022-11-27T08:24:37;12.23;;;5.97;;
57832;SDS011;43667;53.036;6.740;2022-11-27T08:27:03;11.63;;;5.65;;
57832;SDS011;43667;53.036;6.740;2022-11-27T08:29:29;12.07;;;5.35;;
57832;SDS011;43667;53.036;6.740;2022-11-27T08:31:54;12.25;;;5.68;;
57832;SDS011;43667;53.036;6.740;2022-11-27T08:34:20;9.27;;;5.70;;
57832;SDS011;43667;53.036;6.740;2022-11-27T08:36:46;11.75;;;6.10;;
57832;SDS011;43667;53.036;6.740;2022-11-27T08:39:11;13.85;;;6.22;;
57832;SDS011;43667;53.036;6.740;2022-11-27T08:41:37;16.13;;;5.75;;
57832;SDS011;43667;53.036;6.740;2022-11-27T08:44:03;11.98;;;5.90;;
57832;SDS011;43667;53.036;6.740;2022-11-27T08:46:29;12.38;;;5.70;;
57832;SDS011;43667;53.036;6.740;2022-11-27T08:48:54;12.15;;;5.95;;
57832;SDS011;43667;53.036;6.740;2022-11-27T08:51:20;13.50;;;6.38;;
57832;SDS011;43667;53.036;6.740;2022-11-27T08:53:45;10.80;;;5.95;;
57832;SDS011;43667;53.036;6.740;2022-11-27T08:56:18;12.73;;;6.45;;
57832;SDS011;43667;53.036;6.740;2022-11-27T08:58:46;11.10;;;6.25;;
57832;SDS011;43667;53.036;6.740;2022-11-27T09:01:13;14.18;;;5.97;;
57832;SDS011;43667;53.036;6.740;2022-11-27T09:04:05;15.50;;;5.90;;
57832;SDS011;43667;53.036;6.740;2022-11-27T09:06:31;15.85;;;6.63;;
57832;SDS011;43667;53.036;6.740;2022-11-27T09:08:59;11.43;;;6.80;;
57832;SDS011;43667;53.036;6.740;2022-11-27T09:11:26;14.23;;;6.45;;
57832;SDS011;43667;53.036;6.740;2022-11-27T09:13:53;12.85;;;5.75;;
57832;SDS011;43667;53.036;6.740;2022-11-27T09:16:20;10.48;;;5.82;;
57832;SDS011;43667;53.036;6.740;2022-11-27T09:18:47;13.30;;;6.65;;
57832;SDS011;43667;53.036;6.740;2022-11-27T09:21:14;14.60;;;7.20;;
57832;SDS011;43667;53.036;6.740;2022-11-27T09:23:41;13.95;;;6.75;;
57832;SDS011;43667;53.036;6.740;2022-11-27T09:26:08;9.65;;;5.55;;
57832;SDS011;43667;53.036;6.740;2022-11-27T09:28:36;17.95;;;5.93;;
57832;SDS011;43667;53.036;6.740;2022-11-27T09:31:03;14.50;;;6.97;;
57832;SDS011;43667;53.036;6.740;2022-11-27T09:33:30;13.20;;;5.68;;
57832;SDS011;43667;53.036;6.740;2022-11-27T09:35:57;9.48;;;6.05;;
57832;SDS011;43667;53.036;6.740;2022-11-27T09:38:22;14.20;;;7.07;;
57832;SDS011;43667;53.036;6.740;2022-11-27T09:40:52;12.45;;;6.50;;
57832;SDS011;43667;53.036;6.740;2022-11-27T09:43:26;10.30;;;6.15;;
57832;SDS011;43667;53.036;6.740;2022-11-27T09:45:57;15.38;;;6.32;;
57832;SDS011;43667;53.036;6.740;2022-11-27T09:48:32;14.38;;;6.75;;
57832;SDS011;43667;53.036;6.740;2022-11-27T09:51:01;12.48;;;6.38;;
57832;SDS011;43667;53.036;6.740;2022-11-27T09:53:38;13.45;;;6.57;;
57832;SDS011;43667;53.036;6.740;2022-11-27T09:56:07;13.10;;;6.57;;
57832;SDS011;43667;53.036;6.740;2022-11-27T09:58:37;12.57;;;6.80;;
57832;SDS011;43667;53.036;6.740;2022-11-27T10:01:11;10.63;;;6.38;;
57832;SDS011;43667;53.036;6.740;2022-11-27T10:03:42;14.90;;;7.00;;
57832;SDS011;43667;53.036;6.740;2022-11-27T10:11:22;16.55;;;7.72;;
57832;SDS011;43667;53.036;6.740;2022-11-27T10:14:03;17.00;;;7.78;;
57832;SDS011;43667;53.036;6.740;2022-11-27T10:16:56;16.67;;;9.35;;
57832;SDS011;43667;53.036;6.740;2022-11-27T10:19:44;14.65;;;7.57;;
57832;SDS011;43667;53.036;6.740;2022-11-27T10:24:52;15.40;;;8.15;;
57832;SDS011;43667;53.036;6.740;2022-11-27T10:30:38;13.85;;;7.75;;
57832;SDS011;43667;53.036;6.740;2022-11-27T10:33:15;13.32;;;7.88;;
57832;SDS011;43667;53.036;6.740;2022-11-27T10:35:46;15.38;;;8.20;;
57832;SDS011;43667;53.036;6.740;2022-11-27T10:38:17;16.60;;;7.60;;
57832;SDS011;43667;53.036;6.740;2022-11-27T10:40:51;16.83;;;8.32;;
57832;SDS011;43667;53.036;6.740;2022-11-27T10:43:24;14.60;;;7.97;;
57832;SDS011;43667;53.036;6.740;2022-11-27T10:45:51;19.02;;;8.38;;
57832;SDS011;43667;53.036;6.740;2022-11-27T10:48:17;12.68;;;7.70;;
57832;SDS011;43667;53.036;6.740;2022-11-27T10:50:43;13.57;;;8.00;;
57832;SDS011;43667;53.036;6.740;2022-11-27T10:53:31;17.15;;;8.43;;
57832;SDS011;43667;53.036;6.740;2022-11-27T10:56:41;15.20;;;8.52;;
57832;SDS011;43667;53.036;6.740;2022-11-27T10:59:17;16.65;;;9.10;;
57832;SDS011;43667;53.036;6.740;2022-11-27T11:01:46;17.30;;;8.10;;
57832;SDS011;43667;53.036;6.740;2022-11-27T11:04:14;13.05;;;8.07;;
57832;SDS011;43667;53.036;6.740;2022-11-27T11:06:46;16.70;;;8.60;;
57832;SDS011;43667;53.036;6.740;2022-11-27T11:09:17;19.95;;;8.30;;
57832;SDS011;43667;53.036;6.740;2022-11-27T11:12:07;16.33;;;8.30;;
57832;SDS011;43667;53.036;6.740;2022-11-27T11:14:55;14.50;;;8.00;;
57832;SDS011;43667;53.036;6.740;2022-11-27T11:17:40;12.45;;;7.55;;
57832;SDS011;43667;53.036;6.740;2022-11-27T11:20:42;17.77;;;8.45;;
57832;SDS011;43667;53.036;6.740;2022-11-27T11:22:58;16.35;;;8.23;;
57832;SDS011;43667;53.036;6.740;2022-11-27T11:25:23;16.45;;;8.73;;
57832;SDS011;43667;53.036;6.740;2022-11-27T11:27:49;19.65;;;9.27;;
57832;SDS011;43667;53.036;6.740;2022-11-27T11:30:23;18.92;;;8.85;;
57832;SDS011;43667;53.036;6.740;2022-11-27T11:32:58;14.40;;;8.77;;
57832;SDS011;43667;53.036;6.740;2022-11-27T11:35:27;17.02;;;9.05;;
57832;SDS011;43667;53.036;6.740;2022-11-27T11:37:58;16.80;;;9.13;;
57832;SDS011;43667;53.036;6.740;2022-11-27T11:40:26;22.25;;;8.70;;
57832;SDS011;43667;53.036;6.740;2022-11-27T11:42:56;13.82;;;8.27;;
57832;SDS011;43667;53.036;6.740;2022-11-27T11:45:31;17.02;;;8.63;;
57832;SDS011;43667;53.036;6.740;2022-11-27T11:47:59;15.57;;;8.38;;
57832;SDS011;43667;53.036;6.740;2022-11-27T11:58:36;15.63;;;9.13;;
57832;SDS011;43667;53.036;6.740;2022-11-27T12:01:23;12.90;;;7.93;;
57832;SDS011;43667;53.036;6.740;2022-11-27T12:04:01;14.18;;;8.50;;
57832;SDS011;43667;53.036;6.740;2022-11-27T12:09:24;16.13;;;8.20;;
57832;SDS011;43667;53.036;6.740;2022-11-27T12:12:09;13.10;;;8.20;;
57832;SDS011;43667;53.036;6.740;2022-11-27T12:14:53;12.07;;;7.85;;
57832;SDS011;43667;53.036;6.740;2022-11-27T12:23:27;13.88;;;8.30;;
57832;SDS011;43667;53.036;6.740;2022-11-27T12:26:04;14.45;;;8.40;;
57832;SDS011;43667;53.036;6.740;2022-11-27T12:31:33;13.75;;;8.48;;
57832;SDS011;43667;53.036;6.740;2022-11-27T12:40:31;16.83;;;8.35;;
57832;SDS011;43667;53.036;6.740;2022-11-27T12:45:58;12.55;;;7.90;;
57832;SDS011;43667;53.036;6.740;2022-11-27T12:48:46;13.20;;;8.63;;
57832;SDS011;43667;53.036;6.740;2022-11-27T12:51:21;13.25;;;8.15;;
57832;SDS011;43667;53.036;6.740;2022-11-27T12:53:59;14.75;;;7.82;;
57832;SDS011;43667;53.036;6.740;2022-11-27T12:56:51;13.00;;;8.38;;
57832;SDS011;43667;53.036;6.740;2022-11-27T12:59:32;15.18;;;8.88;;
57832;SDS011;43667;53.036;6.740;2022-11-27T13:04:43;14.07;;;8.20;;
57832;SDS011;43667;53.036;6.740;2022-11-27T13:07:20;15.65;;;9.15;;
57832;SDS011;43667;53.036;6.740;2022-11-27T13:12:41;17.48;;;8.88;;
57832;SDS011;43667;53.036;6.740;2022-11-27T13:15:51;13.52;;;8.68;;
57832;SDS011;43667;53.036;6.740;2022-11-27T13:20:41;14.82;;;9.18;;
57832;SDS011;43667;53.036;6.740;2022-11-27T13:23:08;12.90;;;8.38;;
57832;SDS011;43667;53.036;6.740;2022-11-27T13:25:35;15.77;;;8.80;;
57832;SDS011;43667;53.036;6.740;2022-11-27T13:28:07;15.82;;;8.40;;
57832;SDS011;43667;53.036;6.740;2022-11-27T13:30:45;14.70;;;9.07;;
57832;SDS011;43667;53.036;6.740;2022-11-27T13:33:17;14.13;;;8.45;;
57832;SDS011;43667;53.036;6.740;2022-11-27T13:36:17;13.27;;;8.68;;
57832;SDS011;43667;53.036;6.740;2022-11-27T13:38:52;13.50;;;8.60;;
57832;SDS011;43667;53.036;6.740;2022-11-27T13:41:30;14.20;;;9.07;;
57832;SDS011;43667;53.036;6.740;2022-11-27T13:44:00;14.95;;;9.07;;
57832;SDS011;43667;53.036;6.740;2022-11-27T13:46:27;16.55;;;8.73;;
57832;SDS011;43667;53.036;6.740;2022-11-27T13:49:05;15.40;;;9.18;;
57832;SDS011;43667;53.036;6.740;2022-11-27T13:51:37;12.93;;;7.78;;
57832;SDS011;43667;53.036;6.740;2022-11-27T13:54:13;15.38;;;8.13;;
57832;SDS011;43667;53.036;6.740;2022-11-27T13:56:42;17.75;;;8.35;;
57832;SDS011;43667;53.036;6.740;2022-11-27T14:01:56;16.95;;;8.45;;
57832;SDS011;43667;53.036;6.740;2022-11-27T14:04:27;16.17;;;8.75;;
57832;SDS011;43667;53.036;6.740;2022-11-27T14:07:05;14.38;;;9.00;;
57832;SDS011;43667;53.036;6.740;2022-11-27T14:09:47;15.95;;;8.50;;
57832;SDS011;43667;53.036;6.740;2022-11-27T14:17:51;14.60;;;9.32;;
57832;SDS011;43667;53.036;6.740;2022-11-27T14:20:28;15.43;;;8.35;;
57832;SDS011;43667;53.036;6.740;2022-11-27T14:22:56;14.27;;;9.20;;
57832;SDS011;43667;53.036;6.740;2022-11-27T14:25:24;16.77;;;10.15;;
57832;SDS011;43667;53.036;6.740;2022-11-27T14:30:55;19.52;;;12.93;;
57832;SDS011;43667;53.036;6.740;2022-11-27T14:33:33;15.75;;;13.00;;
57832;SDS011;43667;53.036;6.740;2022-11-27T14:36:00;18.52;;;9.57;;
57832;SDS011;43667;53.036;6.740;2022-11-27T14:38:31;18.65;;;12.88;;
57832;SDS011;43667;53.036;6.740;2022-11-27T14:41:08;21.67;;;13.77;;
57832;SDS011;43667;53.036;6.740;2022-11-27T14:43:38;18.77;;;11.50;;
57832;SDS011;43667;53.036;6.740;2022-11-27T14:46:04;15.80;;;10.82;;
57832;SDS011;43667;53.036;6.740;2022-11-27T14:48:40;16.02;;;12.10;;
57832;SDS011;43667;53.036;6.740;2022-11-27T14:51:20;16.20;;;11.50;;
57832;SDS011;43667;53.036;6.740;2022-11-27T14:53:53;18.35;;;10.02;;
57832;SDS011;43667;53.036;6.740;2022-11-27T14:56:24;15.30;;;11.20;;
57832;SDS011;43667;53.036;6.740;2022-11-27T14:58:54;16.67;;;11.90;;
57832;SDS011;43667;53.036;6.740;2022-11-27T15:01:25;18.23;;;11.43;;
57832;SDS011;43667;53.036;6.740;2022-11-27T15:04:00;15.13;;;11.55;;
57832;SDS011;43667;53.036;6.740;2022-11-27T15:06:38;19.65;;;12.00;;
57832;SDS011;43667;53.036;6.740;2022-11-27T15:09:15;15.95;;;11.35;;
57832;SDS011;43667;53.036;6.740;2022-11-27T15:11:43;18.45;;;11.27;;
57832;SDS011;43667;53.036;6.740;2022-11-27T15:14:12;16.38;;;11.52;;
57832;SDS011;43667;53.036;6.740;2022-11-27T15:16:42;18.15;;;11.57;;
57832;SDS011;43667;53.036;6.740;2022-11-27T15:19:24;21.95;;;10.90;;
57832;SDS011;43667;53.036;6.740;2022-11-27T15:24:43;18.38;;;11.02;;
57832;SDS011;43667;53.036;6.740;2022-11-27T15:27:19;14.40;;;10.73;;
57832;SDS011;43667;53.036;6.740;2022-11-27T15:32:18;21.27;;;11.70;;
57832;SDS011;43667;53.036;6.740;2022-11-27T15:34:45;18.17;;;11.13;;
57832;SDS011;43667;53.036;6.740;2022-11-27T15:37:23;15.98;;;11.18;;
57832;SDS011;43667;53.036;6.740;2022-11-27T15:39:55;12.88;;;10.45;;
57832;SDS011;43667;53.036;6.740;2022-11-27T15:42:22;15.70;;;10.50;;
57832;SDS011;43667;53.036;6.740;2022-11-27T15:44:54;15.30;;;10.48;;
57832;SDS011;43667;53.036;6.740;2022-11-27T15:47:42;16.85;;;11.18;;
57832;SDS011;43667;53.036;6.740;2022-11-27T15:50:11;16.10;;;11.15;;
57832;SDS011;43667;53.036;6.740;2022-11-27T15:52:39;17.90;;;10.93;;
57832;SDS011;43667;53.036;6.740;2022-11-27T15:55:05;14.55;;;10.80;;
57832;SDS011;43667;53.036;6.740;2022-11-27T15:57:31;16.95;;;10.65;;
57832;SDS011;43667;53.036;6.740;2022-11-27T15:59:57;15.05;;;10.35;;
57832;SDS011;43667;53.036;6.740;2022-11-27T16:02:22;17.08;;;10.82;;
57832;SDS011;43667;53.036;6.740;2022-11-27T16:04:52;16.85;;;10.80;;
57832;SDS011;43667;53.036;6.740;2022-11-27T16:07:17;18.17;;;10.25;;
57832;SDS011;43667;53.036;6.740;2022-11-27T16:09:43;18.83;;;10.90;;
57832;SDS011;43667;53.036;6.740;2022-11-27T16:12:08;19.70;;;11.77;;
57832;SDS011;43667;53.036;6.740;2022-11-27T16:14:34;19.95;;;10.18;;
57832;SDS011;43667;53.036;6.740;2022-11-27T16:17:00;15.15;;;10.77;;
57832;SDS011;43667;53.036;6.740;2022-11-27T16:19:25;14.80;;;10.73;;
57832;SDS011;43667;53.036;6.740;2022-11-27T16:21:51;12.90;;;10.50;;